Weather at Wilford Hall Medical Center Heliport [CLOSED]

Public forecast

Using degrees Fahrenheit for public forecast. Weather courtesy of forecast.io.

Closest aviation weather report (METAR) to Wilford Hall Medical Center Heliport

Closest report is Lackland Air Force Base, 2.4 nm (4.4 km) ESE.

2024/07/25 18:55 (retrieved 40 minutes ago)

KSKF 251855Z 00000KT 10SM FEW041 BKN050 33/21 A3004 RMK AO2A DZB10E24 SLP164 P0000 T03250210

Closest aviation forecast (TAF) to Wilford Hall Medical Center Heliport

Closest forecast is Lackland Air Force Base, 2.4 nm (4.4 km) ESE.

2024/07/25 18:54 (retrieved 41 minutes ago)

TAF KSKF 251800Z 2518/2624 05012KT 9000 -SHRA VCTS SCT020 BKN030CB BKN130 QNH2997INS TEMPO 2520/2524 VRB10G20KT 3200 TSRA BKN020CB BECMG 2601/2602 08006KT 9999 NSW SCT025 BKN110 QNH2998INS BECMG 2605/2606 06003KT 9999 BKN008 OVC018 QNH2997INS BECMG 2614/2615 04006KT 9999 VCSH SCT008 BKN020 QNH2999INS BECMG 2619/2620 03006KT 9000 -SHRA BKN035 QNH2999INS TX33/2521Z TN23/2612Z